Time;durP1;ratioP1;P1;durP2;ratioP2;P2;SDS_P1;SDS_P2;PMS_P1;PMS_P2;Temp;Humidity;BMP_temperature;BMP_pressure;BME280_temperature;BME280_humidity;BME280_pressure;Samples;Min_cycle;Max_cycle;Signal;HPM_P1;HPM_P2
2023/03/10 00:01:25;;;;;;;25.60;16.80;;;;;;;5.53;100.00;98591.91;5265007;28;20029;-73
2023/03/10 00:03:58;;;;;;;24.30;16.35;;;;;;;5.52;100.00;98592.78;5262133;28;20036;-73
2023/03/10 00:06:33;;;;;;;24.35;16.95;;;;;;;5.48;100.00;98602.38;5264031;28;20075;-74
2023/03/10 00:09:04;;;;;;;23.58;17.13;;;;;;;5.50;100.00;98604.91;5262821;28;20416;-72
2023/03/10 00:11:36;;;;;;;22.40;17.00;;;;;;;5.49;100.00;98609.25;5264095;28;20037;-73
2023/03/10 00:14:07;;;;;;;23.37;15.47;;;;;;;5.51;100.00;98604.03;5262637;28;20115;-74
2023/03/10 00:16:39;;;;;;;26.83;16.47;;;;;;;5.52;100.00;98601.38;5263259;28;20075;-73
2023/03/10 00:19:11;;;;;;;23.58;16.08;;;;;;;5.53;100.00;98603.09;5262642;28;20032;-73
2023/03/10 00:21:44;;;;;;;20.53;14.83;;;;;;;5.54;100.00;98597.03;5262695;28;20468;-73
2023/03/10 00:24:15;;;;;;;20.45;15.73;;;;;;;5.51;100.00;98591.94;5262108;28;20143;-73
2023/03/10 00:26:50;;;;;;;20.83;15.73;;;;;;;5.47;100.00;98587.75;5262737;28;20503;-74
2023/03/10 00:29:22;;;;;;;22.42;16.58;;;;;;;5.42;100.00;98587.88;5263506;28;20448;-74
2023/03/10 00:31:53;;;;;;;18.97;14.97;;;;;;;5.37;100.00;98576.81;5263699;28;20052;-73
2023/03/10 00:34:24;;;;;;;20.03;14.77;;;;;;;5.34;100.00;98576.06;5262329;28;20095;-74
2023/03/10 00:36:56;;;;;;;18.87;14.10;;;;;;;5.29;100.00;98581.34;5263592;28;20032;-74
2023/03/10 00:39:27;;;;;;;21.40;15.63;;;;;;;5.31;100.00;98584.72;5263510;28;20029;-73
2023/03/10 00:41:58;;;;;;;19.97;14.83;;;;;;;5.30;100.00;98581.31;5263091;28;20123;-74
2023/03/10 00:44:30;;;;;;;19.67;15.00;;;;;;;5.34;100.00;98584.66;5263258;28;20082;-74
2023/03/10 00:47:01;;;;;;;17.93;15.03;;;;;;;5.37;100.00;98589.72;5263370;28;20029;-74
2023/03/10 00:49:33;;;;;;;20.50;15.83;;;;;;;5.41;100.00;98591.34;5262601;28;20044;-74
2023/03/10 00:52:04;;;;;;;21.50;16.43;;;;;;;5.43;100.00;98584.41;5263312;28;20032;-74
2023/03/10 00:54:39;;;;;;;20.13;15.43;;;;;;;5.46;100.00;98594.66;5263262;28;20040;-73
2023/03/10 00:57:11;;;;;;;18.25;14.85;;;;;;;5.51;100.00;98586.78;5262861;28;20100;-73
2023/03/10 00:59:42;;;;;;;21.50;15.43;;;;;;;5.54;100.00;98594.47;5263176;28;20550;-73
2023/03/10 01:02:14;;;;;;;20.43;15.67;;;;;;;5.55;100.00;98593.53;5263087;28;20392;-74
2023/03/10 01:04:47;;;;;;;19.50;14.73;;;;;;;5.74;100.00;98598.22;5263118;28;20064;-72
2023/03/10 01:07:18;;;;;;;20.55;14.95;;;;;;;5.83;100.00;98596.22;5262824;28;20091;-72
2023/03/10 01:09:50;;;;;;;26.00;15.97;;;;;;;5.93;100.00;98590.78;5263204;28;20072;-73
2023/03/10 01:12:21;;;;;;;21.10;14.10;;;;;;;6.20;100.00;98590.00;5262710;28;20025;-73
2023/03/10 01:14:52;;;;;;;21.67;14.73;;;;;;;6.40;100.00;98588.53;5263058;28;20079;-73
2023/03/10 01:17:24;;;;;;;18.73;12.57;;;;;;;6.57;100.00;98582.84;5263208;28;20036;-74
2023/03/10 01:19:55;;;;;;;17.47;12.90;;;;;;;6.67;100.00;98583.38;5262534;28;20029;-74
2023/03/10 01:22:26;;;;;;;16.57;12.20;;;;;;;6.74;100.00;98571.94;5262869;28;20033;-74
2023/03/10 01:24:58;;;;;;;15.47;12.13;;;;;;;6.94;100.00;98573.88;5261306;28;20056;-74
2023/03/10 01:27:29;;;;;;;17.27;12.03;;;;;;;7.03;100.00;98559.75;5262879;28;20064;-75
2023/03/10 01:30:00;;;;;;;24.17;12.40;;;;;;;7.18;100.00;98561.84;5262451;28;20079;-73
2023/03/10 01:32:32;;;;;;;15.40;11.20;;;;;;;7.27;100.00;98566.66;5262662;28;20025;-74
2023/03/10 01:35:07;;;;;;;19.03;11.90;;;;;;;7.30;100.00;98555.38;5262803;28;20036;-73
2023/03/10 01:37:38;;;;;;;18.10;12.35;;;;;;;7.39;100.00;98559.34;5261439;28;20108;-72
2023/03/10 01:40:15;;;;;;;18.03;13.23;;;;;;;7.35;100.00;98555.19;5262696;28;20587;-72
2023/03/10 01:42:46;;;;;;;16.77;12.70;;;;;;;7.49;100.00;98553.81;5262923;28;20057;-73
2023/03/10 01:45:18;;;;;;;18.50;12.60;;;;;;;7.47;100.00;98560.81;5261241;28;20413;-72
2023/03/10 01:47:49;;;;;;;18.13;12.53;;;;;;;7.45;100.00;98553.97;5262289;28;20017;-73
2023/03/10 01:50:22;;;;;;;16.93;12.63;;;;;;;7.50;100.00;98557.22;5260513;28;20033;-72
2023/03/10 01:52:57;;;;;;;17.02;13.05;;;;;;;7.53;100.00;98536.38;5262451;28;20029;-73
2023/03/10 01:55:33;;;;;;;17.08;12.52;;;;;;;7.54;100.00;98542.44;5261943;28;20036;-73
2023/03/10 01:58:06;;;;;;;18.42;12.38;;;;;;;7.58;100.00;98547.47;5261154;28;20029;-72
2023/03/10 02:00:40;;;;;;;15.02;12.00;;;;;;;7.61;100.00;98541.28;5262244;28;20045;-72
2023/03/10 02:03:18;;;;;;;18.27;12.15;;;;;;;7.64;100.00;98541.19;5262157;28;20495;-72
2023/03/10 02:06:02;;;;;;;14.48;12.10;;;;;;;7.73;100.00;98540.84;5262251;28;20029;-72
2023/03/10 02:08:39;;;;;;;15.85;13.25;;;;;;;7.68;100.00;98545.38;5262519;28;20032;-72
2023/03/10 02:11:13;;;;;;;16.85;12.55;;;;;;;7.75;100.00;98546.81;5262299;28;20398;-72
2023/03/10 02:13:44;;;;;;;16.60;12.13;;;;;;;7.90;100.00;98544.56;5261779;28;20021;-72
2023/03/10 02:16:17;;;;;;;18.80;12.60;;;;;;;7.91;100.00;98541.91;5262374;28;20045;-72
2023/03/10 02:18:48;;;;;;;13.75;11.70;;;;;;;7.95;100.00;98540.03;5261774;28;20033;-72
2023/03/10 02:21:48;;;;;;;14.00;11.63;;;;;;;7.89;100.00;98527.28;5261819;28;20029;-72
2023/03/10 02:24:26;;;;;;;15.82;11.43;;;;;;;7.74;100.00;98526.13;5261724;28;20049;-72
2023/03/10 02:27:05;;;;;;;14.60;10.68;;;;;;;7.78;100.00;98525.13;5262001;28;20045;-72
2023/03/10 02:29:49;;;;;;;13.93;9.98;;;;;;;7.76;100.00;98512.22;5261860;28;20041;-73
2023/03/10 02:32:22;;;;;;;14.50;9.98;;;;;;;7.84;100.00;98504.97;5262401;28;20033;-73
2023/03/10 02:34:53;;;;;;;15.35;11.15;;;;;;;7.86;100.00;98512.72;5261870;28;20116;-73
2023/03/10 02:37:30;;;;;;;15.60;10.87;;;;;;;7.86;100.00;98510.13;5262319;28;20457;-73
2023/03/10 02:40:21;;;;;;;16.08;11.00;;;;;;;7.80;100.00;98505.16;5261957;28;20025;-72
2023/03/10 02:42:52;;;;;;;13.30;10.07;;;;;;;7.70;100.00;98503.81;5266159;28;20105;-72
2023/03/10 02:45:28;;;;;;;14.20;9.57;;;;;;;7.62;100.00;98498.91;5274695;28;20090;-72
2023/03/10 02:47:59;;;;;;;12.73;10.13;;;;;;;7.60;100.00;98504.16;5278662;28;20025;-72
2023/03/10 02:50:35;;;;;;;16.47;10.30;;;;;;;7.60;100.00;98493.78;5278064;28;20040;-72
2023/03/10 02:53:15;;;;;;;13.38;9.80;;;;;;;7.61;100.00;98492.03;5277317;28;20134;-74
2023/03/10 02:55:47;;;;;;;15.05;10.80;;;;;;;7.58;100.00;98486.97;5271701;28;20116;-71
2023/03/10 02:58:19;;;;;;;14.80;10.60;;;;;;;7.55;100.00;98490.53;5264143;28;20068;-70
2023/03/10 03:00:51;;;;;;;17.55;10.57;;;;;;;7.37;100.00;98486.84;5265233;28;20055;-70
2023/03/10 03:03:23;;;;;;;15.20;11.32;;;;;;;7.37;100.00;98483.41;5265206;28;20029;-70
2023/03/10 03:05:54;;;;;;;17.55;10.80;;;;;;;7.32;100.00;98470.63;5264904;28;20036;-70
2023/03/10 03:08:26;;;;;;;17.70;11.53;;;;;;;7.33;100.00;98469.72;5265548;28;20029;-70
2023/03/10 03:10:58;;;;;;;16.97;11.10;;;;;;;7.28;100.00;98477.66;5264959;28;20041;-69
2023/03/10 03:13:29;;;;;;;18.30;11.20;;;;;;;7.31;100.00;98466.34;5264599;28;20029;-70
2023/03/10 03:16:01;;;;;;;19.17;10.97;;;;;;;7.38;100.00;98464.38;5265139;28;20429;-70
2023/03/10 03:18:33;;;;;;;21.27;10.53;;;;;;;7.37;100.00;98460.09;5263508;28;20356;-70
2023/03/10 03:21:06;;;;;;;14.67;10.07;;;;;;;7.36;100.00;98466.16;5265467;28;20036;-69
2023/03/10 03:23:38;;;;;;;19.13;10.63;;;;;;;7.38;100.00;98461.78;5264401;28;20043;-69
2023/03/10 03:26:21;;;;;;;17.43;9.17;;;;;;;7.41;100.00;98454.75;5264846;28;20045;-71
2023/03/10 03:28:52;;;;;;;17.65;9.10;;;;;;;7.51;100.00;98457.81;5265012;28;20450;-69
2023/03/10 03:31:25;;;;;;;15.03;8.93;;;;;;;7.49;100.00;98462.22;5263522;28;20028;-71
2023/03/10 03:33:56;;;;;;;16.20;8.93;;;;;;;7.52;100.00;98469.03;5246644;28;20025;-71
2023/03/10 03:36:27;;;;;;;12.80;8.27;;;;;;;7.57;100.00;98460.19;5264798;28;20040;-71
2023/03/10 03:38:59;;;;;;;15.77;8.20;;;;;;;7.58;100.00;98458.44;5264723;28;20021;-70
2023/03/10 03:41:31;;;;;;;13.87;9.00;;;;;;;7.59;100.00;98470.50;5263416;28;20033;-71
2023/03/10 03:44:02;;;;;;;14.93;7.90;;;;;;;7.59;100.00;98468.75;5263723;28;20028;-70
2023/03/10 03:46:33;;;;;;;14.73;7.37;;;;;;;7.65;100.00;98463.34;5264970;28;20017;-70
2023/03/10 03:49:05;;;;;;;14.63;7.17;;;;;;;7.64;100.00;98461.63;5265528;28;20104;-69
2023/03/10 03:51:36;;;;;;;18.37;7.10;;;;;;;7.69;100.00;98465.81;5264676;28;20033;-69
2023/03/10 03:54:08;;;;;;;14.90;6.70;;;;;;;7.69;100.00;98466.66;5264728;28;20017;-72
2023/03/10 03:56:39;;;;;;;13.90;6.40;;;;;;;7.68;100.00;98454.59;5264407;28;20079;-69
2023/03/10 03:59:10;;;;;;;14.00;6.50;;;;;;;7.71;100.00;98451.91;5264241;28;20380;-69
2023/03/10 04:01:42;;;;;;;13.40;5.83;;;;;;;7.70;100.00;98444.19;5264444;28;20037;-70
2023/03/10 04:04:13;;;;;;;15.37;5.90;;;;;;;7.70;100.00;98459.75;5264083;28;20464;-69
2023/03/10 04:06:45;;;;;;;11.23;5.43;;;;;;;7.71;100.00;98451.91;5264033;28;20369;-70
2023/03/10 04:09:17;;;;;;;12.77;6.40;;;;;;;7.73;100.00;98446.63;5264260;28;20032;-70
2023/03/10 04:11:48;;;;;;;12.20;5.75;;;;;;;7.76;100.00;98443.91;5264111;28;20033;-71
2023/03/10 04:14:19;;;;;;;15.03;5.57;;;;;;;7.75;100.00;98447.44;5264127;28;20029;-70
2023/03/10 04:16:51;;;;;;;12.60;5.30;;;;;;;7.75;100.00;98442.25;5263772;28;20021;-70
2023/03/10 04:19:22;;;;;;;20.40;6.63;;;;;;;7.77;100.00;98445.63;5263731;28;20029;-69
2023/03/10 04:21:54;;;;;;;17.93;4.53;;;;;;;7.77;100.00;98441.25;5263512;28;20495;-70
2023/03/10 04:24:25;;;;;;;15.63;5.47;;;;;;;7.75;100.00;98427.53;5263798;28;20033;-70
2023/03/10 04:26:56;;;;;;;13.47;4.97;;;;;;;7.77;100.00;98435.25;5264198;28;20333;-69
2023/03/10 04:29:28;;;;;;;15.90;5.57;;;;;;;7.73;100.00;98444.03;5263742;28;20029;-69
2023/03/10 04:31:59;;;;;;;11.97;3.70;;;;;;;7.67;100.00;98445.97;5262832;28;20064;-70
2023/03/10 04:34:31;;;;;;;14.23;4.40;;;;;;;7.64;100.00;98446.09;5263650;28;20032;-69
2023/03/10 04:37:02;;;;;;;12.47;4.13;;;;;;;7.55;100.00;98440.41;5263374;28;20352;-70
2023/03/10 04:39:35;;;;;;;14.00;5.13;;;;;;;7.52;100.00;98443.09;5264037;28;20052;-70
2023/03/10 04:42:06;;;;;;;18.13;4.50;;;;;;;7.53;100.00;98427.50;5263275;28;20025;-69
2023/03/10 04:44:38;;;;;;;13.57;4.50;;;;;;;7.48;100.00;98430.25;5263153;28;20102;-71
2023/03/10 04:47:09;;;;;;;21.73;4.33;;;;;;;7.46;100.00;98431.25;5262898;28;20082;-70
2023/03/10 04:49:40;;;;;;;14.70;4.87;;;;;;;7.43;100.00;98421.81;5262050;28;20132;-70
2023/03/10 04:52:13;;;;;;;20.30;4.67;;;;;;;7.42;100.00;98422.75;5263192;28;20017;-69
2023/03/10 04:54:44;;;;;;;16.88;4.53;;;;;;;7.46;100.00;98426.91;5263123;28;20111;-70
2023/03/10 04:57:15;;;;;;;17.97;4.77;;;;;;;7.47;100.00;98426.00;5263077;28;20115;-69
2023/03/10 04:59:47;;;;;;;17.77;4.70;;;;;;;7.51;100.00;98420.69;5262905;28;20060;-70
2023/03/10 05:02:18;;;;;;;18.20;4.90;;;;;;;7.55;100.00;98428.31;5262796;28;20028;-69
2023/03/10 05:04:50;;;;;;;18.67;4.80;;;;;;;7.53;100.00;98418.88;5261822;28;20032;-70
2023/03/10 05:07:21;;;;;;;20.80;5.23;;;;;;;7.46;100.00;98424.31;5262864;28;20536;-69
2023/03/10 05:09:52;;;;;;;19.63;5.03;;;;;;;7.45;100.00;98419.16;5262681;28;20025;-69
2023/03/10 05:12:24;;;;;;;23.20;5.87;;;;;;;7.47;100.00;98420.81;5262900;28;20036;-70
2023/03/10 05:14:55;;;;;;;21.90;7.07;;;;;;;7.44;100.00;98415.75;5262221;28;20116;-70
2023/03/10 05:17:28;;;;;;;21.73;6.40;;;;;;;7.46;100.00;98418.28;5262361;28;20134;-69
2023/03/10 05:19:59;;;;;;;21.35;6.72;;;;;;;7.44;100.00;98420.09;5262211;28;20059;-70
2023/03/10 05:22:30;;;;;;;17.40;5.97;;;;;;;7.48;100.00;98419.91;5262576;28;20526;-70
2023/03/10 05:25:03;;;;;;;18.50;5.23;;;;;;;7.47;100.00;98419.94;5262354;28;20045;-70
2023/03/10 05:27:36;;;;;;;16.60;4.53;;;;;;;7.45;100.00;98417.44;5262552;28;20033;-70
2023/03/10 05:30:10;;;;;;;21.75;5.40;;;;;;;7.47;100.00;98419.94;5262280;28;20119;-69
2023/03/10 05:32:42;;;;;;;23.50;6.47;;;;;;;7.47;100.00;98418.22;5262115;28;20029;-70
2023/03/10 05:35:14;;;;;;;19.63;6.05;;;;;;;7.48;100.00;98419.91;5262459;28;20033;-69
2023/03/10 05:37:45;;;;;;;20.87;5.20;;;;;;;7.47;100.00;98414.75;5262521;28;20033;-69
2023/03/10 05:40:20;;;;;;;17.43;6.13;;;;;;;7.50;100.00;98419.84;5262422;28;20037;-70
2023/03/10 05:42:51;;;;;;;18.38;5.45;;;;;;;7.52;100.00;98425.81;5263058;28;20036;-71
2023/03/10 05:45:22;;;;;;;21.40;6.40;;;;;;;7.55;100.00;98424.84;5262634;28;20033;-70
2023/03/10 05:47:54;;;;;;;21.23;5.83;;;;;;;7.55;100.00;98419.66;5262659;28;20033;-71
2023/03/10 05:50:25;;;;;;;22.67;6.00;;;;;;;7.55;100.00;98425.72;5262434;28;20061;-69
2023/03/10 05:52:57;;;;;;;26.50;5.47;;;;;;;7.53;100.00;98418.88;5262478;28;20025;-70
2023/03/10 05:55:28;;;;;;;23.73;5.80;;;;;;;7.54;100.00;98429.19;5262443;28;20052;-70
2023/03/10 05:58:00;;;;;;;25.13;5.93;;;;;;;7.53;100.00;98424.91;5262340;28;20044;-69
2023/03/10 06:00:31;;;;;;;19.90;6.43;;;;;;;7.55;100.00;98424.84;5262622;28;20461;-70
2023/03/10 06:03:03;;;;;;;22.23;5.33;;;;;;;7.53;100.00;98421.47;5262487;28;20078;-70
2023/03/10 06:05:34;;;;;;;25.10;5.60;;;;;;;7.55;100.00;98428.31;5262283;28;20060;-70
2023/03/10 06:08:06;;;;;;;23.73;5.90;;;;;;;7.54;100.00;98434.38;5262375;28;20404;-69
2023/03/10 06:10:37;;;;;;;29.63;7.23;;;;;;;7.55;100.00;98422.25;5262382;28;20025;-70
2023/03/10 06:13:08;;;;;;;29.70;7.20;;;;;;;7.55;100.00;98422.25;5261214;28;20029;-71
2023/03/10 06:15:40;;;;;;;18.83;6.57;;;;;;;7.55;100.00;98425.72;5265308;28;20087;-70
2023/03/10 06:18:11;;;;;;;21.90;5.37;;;;;;;7.55;100.00;98428.31;5266388;28;20135;-69
2023/03/10 06:20:43;;;;;;;23.63;6.10;;;;;;;7.56;100.00;98442.94;5266229;28;20052;-68
2023/03/10 06:23:16;;;;;;;21.70;6.37;;;;;;;7.57;100.00;98434.28;5266277;28;20524;-70
2023/03/10 06:26:04;;;;;;;19.98;7.10;;;;;;;7.58;100.00;98437.69;5266610;28;20398;-70
2023/03/10 06:28:38;;;;;;;21.85;6.10;;;;;;;7.60;100.00;98438.47;5266107;28;20024;-69
2023/03/10 06:31:18;;;;;;;24.13;6.75;;;;;;;7.60;100.00;98449.72;5266418;28;20025;-70
2023/03/10 06:33:50;;;;;;;19.70;6.30;;;;;;;7.58;100.00;98448.94;5265921;28;20025;-68
2023/03/10 06:36:22;;;;;;;24.47;7.07;;;;;;;7.58;100.00;98448.06;5265576;28;20037;-69
2023/03/10 06:38:54;;;;;;;21.77;6.78;;;;;;;7.57;100.00;98443.81;5265841;28;20028;-69
2023/03/10 06:41:26;;;;;;;21.87;5.80;;;;;;;7.57;100.00;98442.03;5265374;28;20025;-69
2023/03/10 06:43:58;;;;;;;20.38;5.90;;;;;;;7.58;100.00;98441.16;5265695;28;20087;-68
2023/03/10 06:46:29;;;;;;;16.90;5.60;;;;;;;7.60;100.00;98444.53;5265668;28;20021;-68
2023/03/10 06:49:01;;;;;;;24.77;6.40;;;;;;;7.60;100.00;98448.84;5265629;28;20074;-68
2023/03/10 06:51:32;;;;;;;20.30;6.20;;;;;;;7.62;100.00;98447.91;5265469;28;20520;-68
2023/03/10 06:54:04;;;;;;;18.27;6.17;;;;;;;7.64;100.00;98453.03;5265673;28;20131;-68
2023/03/10 06:56:35;;;;;;;20.70;6.80;;;;;;;7.66;100.00;98446.88;5265947;28;20025;-68
2023/03/10 06:59:06;;;;;;;15.73;6.93;;;;;;;7.73;100.00;98449.22;5264419;28;20074;-69
2023/03/10 07:01:38;;;;;;;19.80;7.70;;;;;;;7.79;100.00;98442.06;5265353;28;20437;-68
2023/03/10 07:04:10;;;;;;;17.77;6.57;;;;;;;7.87;100.00;98444.34;5266192;28;20469;-70
2023/03/10 07:06:42;;;;;;;23.15;6.78;;;;;;;7.94;100.00;98439.78;5265650;28;20503;-67
2023/03/10 07:09:13;;;;;;;22.07;8.07;;;;;;;7.98;100.00;98442.16;5265324;28;20135;-69
2023/03/10 07:11:45;;;;;;;20.23;6.13;;;;;;;8.04;100.00;98443.69;5265460;28;20163;-69
2023/03/10 07:14:16;;;;;;;23.70;6.23;;;;;;;8.07;100.00;98446.16;5265585;28;20068;-68
2023/03/10 07:16:48;;;;;;;22.23;6.87;;;;;;;8.12;100.00;98446.81;5265534;28;20032;-69
2023/03/10 07:19:19;;;;;;;21.57;5.20;;;;;;;8.17;100.00;98454.41;5265540;28;20024;-68
2023/03/10 07:21:51;;;;;;;17.00;5.30;;;;;;;8.22;100.00;98453.31;5264902;28;20037;-68
2023/03/10 07:24:22;;;;;;;18.30;6.10;;;;;;;8.29;100.00;98455.66;5265105;28;20033;-68
2023/03/10 07:26:53;;;;;;;18.03;5.40;;;;;;;8.38;100.00;98458.72;5263683;28;20049;-68
2023/03/10 07:29:25;;;;;;;17.80;5.10;;;;;;;8.50;100.00;98456.56;5265543;28;20036;-69
2023/03/10 07:31:56;;;;;;;16.90;4.70;;;;;;;8.65;100.00;98461.13;5262533;28;20039;-68
2023/03/10 07:34:27;;;;;;;20.10;4.67;;;;;;;8.78;100.00;98464.03;5264451;28;20033;-69
2023/03/10 07:36:59;;;;;;;12.27;4.80;;;;;;;8.98;100.00;98462.34;5263468;28;20064;-68
2023/03/10 07:39:30;;;;;;;13.00;3.63;;;;;;;9.27;100.00;98469.72;5264493;28;20033;-68
2023/03/10 07:42:02;;;;;;;10.87;3.20;;;;;;;9.46;100.00;98474.06;5264347;28;20029;-68
2023/03/10 07:44:33;;;;;;;14.00;3.60;;;;;;;9.49;100.00;98473.94;5264857;28;20079;-69
2023/03/10 07:47:05;;;;;;;12.03;3.50;;;;;;;9.58;100.00;98481.31;5264203;28;20067;-68
2023/03/10 07:49:36;;;;;;;14.77;4.53;;;;;;;9.76;100.00;98478.78;5264315;28;20040;-68
2023/03/10 07:52:07;;;;;;;12.13;4.20;;;;;;;9.88;100.00;98479.97;5264118;28;20056;-69
2023/03/10 07:54:39;;;;;;;13.13;4.23;;;;;;;9.85;100.00;98489.63;5264176;28;20029;-68
2023/03/10 07:57:12;;;;;;;10.87;3.13;;;;;;;9.75;100.00;98485.72;5263752;28;20142;-69
2023/03/10 07:59:44;;;;;;;11.00;3.22;;;;;;;9.67;100.00;98480.03;5262807;28;20040;-69
2023/03/10 08:02:15;;;;;;;11.23;3.00;;;;;;;9.62;100.00;98476.81;5262477;28;20042;-68
2023/03/10 08:04:47;;;;;;;10.80;2.90;;;;;;;9.57;100.00;98479.63;5263790;28;20033;-68
2023/03/10 08:07:18;;;;;;;11.87;2.90;;;;;;;9.52;100.00;98479.00;5264090;28;20045;-68
2023/03/10 08:09:51;;;;;;;15.03;3.97;;;;;;;9.61;100.00;98488.13;5263534;28;20072;-68
2023/03/10 08:12:22;;;;;;;13.15;3.63;;;;;;;9.83;100.00;98483.63;5263611;28;20461;-68
2023/03/10 08:14:53;;;;;;;8.57;2.93;;;;;;;10.01;100.00;98481.94;5263340;28;20156;-68
2023/03/10 08:17:29;;;;;;;9.53;2.87;;;;;;;10.07;100.00;98478.19;5262546;28;20037;-68
2023/03/10 08:20:01;;;;;;;11.55;3.65;;;;;;;10.18;100.00;98483.72;5263369;28;20056;-69
2023/03/10 08:22:32;;;;;;;8.40;2.67;;;;;;;10.34;100.00;98483.03;5263375;28;20504;-70
2023/03/10 08:25:05;;;;;;;13.03;2.87;;;;;;;10.48;100.00;98484.94;5262684;28;20061;-69
2023/03/10 08:27:36;;;;;;;9.07;3.13;;;;;;;10.51;100.00;98490.84;5263711;28;20399;-68
2023/03/10 08:30:09;;;;;;;10.83;3.83;;;;;;;10.46;100.00;98490.22;5263683;28;20083;-69
2023/03/10 08:32:40;;;;;;;14.23;3.13;;;;;;;10.34;100.00;98490.84;5263390;28;20036;-69
2023/03/10 08:35:12;;;;;;;8.17;3.30;;;;;;;10.19;100.00;98492.34;5262141;28;20041;-70
2023/03/10 08:37:43;;;;;;;14.23;3.87;;;;;;;10.17;100.00;98489.81;5262657;28;20400;-68
2023/03/10 08:40:15;;;;;;;11.77;3.27;;;;;;;10.18;100.00;98488.94;5262677;28;20028;-68
2023/03/10 08:42:46;;;;;;;8.60;2.97;;;;;;;10.25;100.00;98493.84;5263354;28;20090;-69
2023/03/10 08:45:18;;;;;;;9.50;3.00;;;;;;;10.43;100.00;98490.34;5263053;28;20036;-67
2023/03/10 08:47:49;;;;;;;14.23;6.10;;;;;;;10.66;100.00;98480.56;5262868;28;20083;-68
2023/03/10 08:50:21;;;;;;;12.97;3.03;;;;;;;10.91;100.00;98493.22;5263020;28;20036;-68
2023/03/10 08:52:52;;;;;;;9.33;3.77;;;;;;;10.95;100.00;98484.31;5262216;28;20107;-69
2023/03/10 08:55:24;;;;;;;13.40;3.87;;;;;;;11.13;100.00;98496.41;5263367;28;20468;-67
2023/03/10 08:57:55;;;;;;;10.93;3.33;;;;;;;11.12;100.00;98497.34;5262922;28;20044;-68
2023/03/10 09:00:27;;;;;;;9.53;3.73;;;;;;;11.13;100.00;98495.56;5262356;28;20037;-68
2023/03/10 09:02:58;;;;;;;7.90;3.20;;;;;;;11.00;100.00;98492.75;5262826;28;20025;-68
2023/03/10 09:05:31;;;;;;;9.20;3.27;;;;;;;10.81;100.00;98503.25;5262759;28;20047;-68
2023/03/10 09:08:03;;;;;;;12.20;3.45;;;;;;;10.73;100.00;98490.59;5262715;28;20083;-68
2023/03/10 09:10:35;;;;;;;11.80;3.33;;;;;;;10.73;100.00;98492.38;5262632;28;20033;-69
2023/03/10 09:13:07;;;;;;;9.57;4.57;;;;;;;10.77;100.00;98492.16;5262946;28;20492;-68
2023/03/10 09:15:40;;;;;;;13.23;4.27;;;;;;;10.88;100.00;98494.22;5262637;28;20119;-69
2023/03/10 09:18:14;;;;;;;15.13;3.92;;;;;;;10.86;100.00;98484.78;5262477;28;20036;-68
2023/03/10 09:20:45;;;;;;;11.15;4.13;;;;;;;10.82;100.00;98486.72;5262308;28;20056;-68
2023/03/10 09:23:17;;;;;;;12.70;4.80;;;;;;;10.81;100.00;98479.81;5261655;28;20494;-69
2023/03/10 09:25:49;;;;;;;14.30;3.63;;;;;;;10.86;100.00;98484.78;5262170;28;20068;-68
2023/03/10 09:28:20;;;;;;;11.43;3.13;;;;;;;10.68;100.00;98491.78;5262518;28;20158;-68
2023/03/10 09:30:53;;;;;;;9.73;3.13;;;;;;;10.61;100.00;98482.56;5262323;28;20029;-67
2023/03/10 09:33:25;;;;;;;11.93;3.47;;;;;;;10.48;100.00;98480.59;5262189;28;20106;-67
2023/03/10 09:35:57;;;;;;;11.17;4.27;;;;;;;10.40;100.00;98478.34;5262246;28;20500;-69
2023/03/10 09:38:28;;;;;;;9.33;2.90;;;;;;;10.30;100.00;98479.66;5262269;28;20037;-69
2023/03/10 09:41:12;;;;;;;10.10;3.13;;;;;;;10.22;100.00;98482.66;5261304;28;20036;-68
2023/03/10 09:43:51;;;;;;;9.25;2.45;;;;;;;9.82;100.00;98487.16;5261234;28;20033;-69
2023/03/10 09:46:37;;;;;;;8.45;3.15;;;;;;;9.41;100.00;98495.06;5263221;28;20032;-68
2023/03/10 09:49:21;;;;;;;12.15;3.63;;;;;;;9.24;100.00;98494.97;5262173;28;20036;-70
2023/03/10 09:51:52;;;;;;;10.18;3.05;;;;;;;9.13;100.00;98491.09;5268495;28;20029;-68
2023/03/10 09:54:39;;;;;;;10.93;4.67;;;;;;;9.18;100.00;98495.28;5268725;28;20102;-68
2023/03/10 09:57:17;;;;;;;12.18;3.38;;;;;;;8.99;100.00;98495.22;5267520;28;20029;-68
2023/03/10 09:59:54;;;;;;;11.02;3.55;;;;;;;8.95;100.00;98494.47;5266367;28;20032;-68
2023/03/10 10:02:38;;;;;;;14.88;3.50;;;;;;;8.96;100.00;98496.19;5266995;28;20356;-67
2023/03/10 10:05:23;;;;;;;12.80;3.65;;;;;;;9.08;100.00;98508.66;5265418;28;20029;-70
2023/03/10 10:07:56;;;;;;;15.82;4.97;;;;;;;9.09;100.00;98507.72;5266573;28;20380;-68
2023/03/10 10:10:34;;;;;;;11.57;3.90;;;;;;;9.10;100.00;98506.00;5266357;28;20484;-68
2023/03/10 10:13:13;;;;;;;10.23;3.30;;;;;;;9.02;100.00;98501.13;5266240;28;20078;-69
2023/03/10 10:15:52;;;;;;;12.65;3.88;;;;;;;8.85;100.00;98507.03;5266907;28;20078;-69
2023/03/10 10:18:36;;;;;;;12.43;3.33;;;;;;;8.70;100.00;98511.13;5265719;28;20116;-69
2023/03/10 10:21:41;;;;;;;18.80;4.45;;;;;;;8.57;100.00;98509.94;5266151;28;20495;-69
2023/03/10 10:24:14;;;;;;;15.88;4.78;;;;;;;8.56;100.00;98510.84;5265473;28;20028;-69
2023/03/10 10:26:46;;;;;;;12.77;3.35;;;;;;;8.53;100.00;98503.16;5266116;28;20049;-68
2023/03/10 10:29:37;;;;;;;17.60;5.23;;;;;;;8.56;100.00;98516.91;5264864;28;20103;-68
2023/03/10 10:32:12;;;;;;;17.00;4.65;;;;;;;8.57;100.00;98515.13;5265799;28;20477;-70
2023/03/10 10:34:45;;;;;;;17.33;3.90;;;;;;;8.67;100.00;98513.00;5265374;28;20049;-69
2023/03/10 10:37:31;;;;;;;15.93;4.13;;;;;;;8.76;100.00;98505.66;5265436;28;20037;-67
2023/03/10 10:40:22;;;;;;;19.00;4.78;;;;;;;8.91;100.00;98505.94;5265801;28;20091;-68
2023/03/10 10:42:56;;;;;;;17.83;4.93;;;;;;;8.87;100.00;98504.34;5265377;28;20516;-68
2023/03/10 10:45:32;;;;;;;19.95;4.70;;;;;;;8.96;100.00;98500.53;5265430;28;20086;-68
2023/03/10 10:48:04;;;;;;;22.00;5.47;;;;;;;8.89;100.00;98503.41;5266342;28;20361;-67
2023/03/10 10:50:36;;;;;;;15.13;5.27;;;;;;;8.87;100.00;98500.03;5265420;28;20029;-68
2023/03/10 10:53:23;;;;;;;16.75;5.32;;;;;;;8.96;100.00;98487.56;5265205;28;20087;-68
2023/03/10 10:56:01;;;;;;;17.70;5.45;;;;;;;8.96;100.00;98490.97;5265254;28;20365;-68
2023/03/10 10:58:36;;;;;;;14.73;4.80;;;;;;;8.97;100.00;98478.81;5265058;28;20536;-69
2023/03/10 11:01:14;;;;;;;17.60;3.90;;;;;;;8.91;100.00;98474.75;5263982;28;20029;-69
2023/03/10 11:03:47;;;;;;;14.10;3.90;;;;;;;8.91;100.00;98472.16;5265215;28;20112;-68
2023/03/10 11:06:34;;;;;;;11.55;4.15;;;;;;;8.92;100.00;98479.06;5265070;28;20039;-69
2023/03/10 11:09:08;;;;;;;12.35;3.85;;;;;;;8.89;100.00;98479.19;5265701;28;20431;-70
2023/03/10 11:12:06;;;;;;;16.42;4.10;;;;;;;9.02;100.00;98485.53;5264898;28;20035;-69
2023/03/10 11:15:06;;;;;;;14.30;3.70;;;;;;;8.94;100.00;98480.66;5265014;28;20032;-68
2023/03/10 11:17:48;;;;;;;14.25;3.47;;;;;;;8.89;100.00;98479.19;5265661;28;20040;-69
2023/03/10 11:20:23;;;;;;;12.37;3.30;;;;;;;8.85;100.00;98478.44;5265185;28;20060;-68
2023/03/10 11:23:32;;;;;;;7.68;2.63;;;;;;;8.81;100.00;98474.31;5264361;28;20031;-69
2023/03/10 11:26:35;;;;;;;8.00;2.63;;;;;;;8.81;100.00;98471.72;5263261;28;20468;-67
2023/03/10 11:29:47;;;;;;;9.57;4.38;;;;;;;8.82;100.00;98464.75;5264761;28;20068;-68
2023/03/10 11:32:44;;;;;;;10.13;3.78;;;;;;;8.78;100.00;98466.63;5264533;28;20167;-67
2023/03/10 11:35:18;;;;;;;9.05;3.72;;;;;;;8.74;100.00;98454.69;5256350;28;20037;-67
2023/03/10 11:37:58;;;;;;;10.38;4.93;;;;;;;8.72;100.00;98456.50;5264515;28;20025;-68
2023/03/10 11:40:47;;;;;;;6.78;3.47;;;;;;;8.62;100.00;98450.88;5264555;28;20032;-68
2023/03/10 11:43:52;;;;;;;6.80;3.92;;;;;;;8.76;100.00;98456.31;5264266;28;20037;-67
2023/03/10 11:46:31;;;;;;;7.13;3.90;;;;;;;8.76;100.00;98450.28;5264420;28;20417;-68
2023/03/10 11:49:11;;;;;;;10.13;3.90;;;;;;;8.75;100.00;98446.81;5263733;28;20044;-68
2023/03/10 11:51:59;;;;;;;7.95;4.43;;;;;;;8.85;100.00;98456.81;5263663;28;20363;-69
2023/03/10 11:54:34;;;;;;;9.40;4.75;;;;;;;8.84;100.00;98450.78;5264482;28;20033;-68